createdAt,value
2017-12-20T06:13:23.667Z,97.50
2017-12-20T06:15:54.329Z,97.50
2017-12-20T06:18:42.527Z,97.50
2017-12-20T06:21:10.278Z,97.40
2017-12-20T06:23:44.503Z,97.50
2017-12-20T06:26:12.576Z,97.50
2017-12-20T06:28:40.253Z,97.40
2017-12-20T06:31:13.903Z,97.30
2017-12-20T06:33:42.141Z,97.20
2017-12-20T06:36:09.844Z,97.00
2017-12-20T06:38:38.106Z,97.10
2017-12-20T06:41:05.822Z,97.10
2017-12-20T06:43:33.493Z,96.90
2017-12-20T06:46:03.694Z,96.90
2017-12-20T06:48:31.186Z,96.90
2017-12-20T06:50:58.682Z,96.70
2017-12-20T06:53:26.162Z,96.70
2017-12-20T06:55:53.754Z,96.90
2017-12-20T06:58:21.242Z,97.00
2017-12-20T07:00:48.834Z,97.10
2017-12-20T07:03:16.519Z,97.20
2017-12-20T07:05:43.986Z,97.30
2017-12-20T07:08:11.545Z,97.50
2017-12-20T07:10:39.114Z,97.60
2017-12-20T07:13:07.092Z,97.60
2017-12-20T07:15:34.756Z,97.50
2017-12-20T07:18:02.243Z,97.40
2017-12-20T07:20:29.763Z,97.40
2017-12-20T07:22:57.328Z,97.40
2017-12-20T07:25:24.832Z,97.40
2017-12-20T07:27:52.662Z,97.30
2017-12-20T07:30:20.145Z,97.20
2017-12-20T07:32:48.485Z,97.30
2017-12-20T07:35:16.023Z,97.20
2017-12-20T07:37:43.541Z,97.10
2017-12-20T07:40:11.142Z,97.30
2017-12-20T07:42:38.638Z,97.40
2017-12-20T07:45:06.115Z,97.40
2017-12-20T07:47:33.611Z,97.30
2017-12-20T07:50:01.124Z,97.40
2017-12-20T07:52:28.695Z,97.30
2017-12-20T07:54:56.182Z,97.40
2017-12-20T07:57:23.683Z,97.40
2017-12-20T07:59:51.180Z,97.30
2017-12-20T08:02:18.678Z,97.30
2017-12-20T08:04:46.190Z,97.30
2017-12-20T08:07:14.486Z,97.40
2017-12-20T08:09:41.999Z,97.30
2017-12-20T08:12:09.522Z,97.40
2017-12-20T08:14:37.026Z,97.30
2017-12-20T08:17:04.551Z,97.30
2017-12-20T08:19:32.050Z,97.10
2017-12-20T08:21:59.544Z,97.10
2017-12-20T08:24:27.059Z,97.20
2017-12-20T08:26:55.331Z,97.30
2017-12-20T08:29:23.628Z,97.40
2017-12-20T08:31:51.104Z,97.40
2017-12-20T08:34:18.592Z,97.50
2017-12-20T08:36:46.099Z,97.50
2017-12-20T08:39:13.659Z,97.70
2017-12-20T08:41:41.924Z,97.70
2017-12-20T08:44:10.160Z,97.70
2017-12-20T08:46:37.670Z,97.60
2017-12-20T08:49:05.155Z,97.50
2017-12-20T08:51:32.635Z,97.50
2017-12-20T08:54:00.159Z,97.60
2017-12-20T08:56:27.691Z,97.50
2017-12-20T08:58:55.955Z,97.60
2017-12-20T09:01:24.237Z,97.50
2017-12-20T09:03:51.739Z,97.50
2017-12-20T09:06:19.229Z,97.30
2017-12-20T09:08:46.715Z,97.20
2017-12-20T09:11:14.233Z,97.30
2017-12-20T09:13:41.739Z,97.10
2017-12-20T09:16:09.231Z,97.10
2017-12-20T09:18:37.410Z,97.10
2017-12-20T09:21:04.906Z,97.00
2017-12-20T09:23:32.390Z,97.00
2017-12-20T09:25:59.895Z,97.10
2017-12-20T09:28:27.381Z,97.10
2017-12-20T09:30:55.637Z,97.10
2017-12-20T09:33:23.193Z,97.10
2017-12-20T09:35:50.685Z,97.10
2017-12-20T09:38:18.950Z,97.20
2017-12-20T09:40:47.210Z,97.20
2017-12-20T09:43:14.708Z,97.20
2017-12-20T09:45:43.028Z,97.30
2017-12-20T09:48:10.477Z,97.20
2017-12-20T09:50:37.970Z,97.30
2017-12-20T09:53:05.503Z,97.30
2017-12-20T09:55:32.965Z,97.40
2017-12-20T09:58:00.428Z,97.40
2017-12-20T10:00:28.030Z,97.20
2017-12-20T10:02:55.521Z,97.20
2017-12-20T10:05:22.990Z,97.20
2017-12-20T10:07:50.458Z,97.30
2017-12-20T10:10:17.924Z,97.10
2017-12-20T10:12:45.385Z,97.00
2017-12-20T10:15:12.871Z,97.30
2017-12-20T10:17:40.319Z,97.30
2017-12-20T10:20:07.859Z,97.20
2017-12-20T10:22:35.501Z,97.30
2017-12-20T10:25:02.950Z,97.30
2017-12-20T10:27:30.411Z,97.30
2017-12-20T10:29:57.970Z,97.20
2017-12-20T10:32:25.426Z,97.10
2017-12-20T10:34:52.882Z,97.10
2017-12-20T10:37:20.342Z,97.00
2017-12-20T10:39:47.814Z,97.10
2017-12-20T10:42:15.270Z,97.20
2017-12-20T10:44:42.718Z,97.20
2017-12-20T10:47:10.351Z,97.20
2017-12-20T10:49:37.835Z,97.30
2017-12-20T10:52:05.301Z,97.30
2017-12-20T10:54:32.777Z,97.30
2017-12-20T10:57:00.223Z,97.40
2017-12-20T10:59:28.483Z,97.00
2017-12-20T11:01:55.965Z,97.00
2017-12-20T11:04:24.183Z,97.20
2017-12-20T11:06:51.676Z,97.20
2017-12-20T11:09:19.122Z,97.10
2017-12-20T11:11:46.622Z,97.10
2017-12-20T11:14:14.084Z,97.00
2017-12-20T11:16:41.556Z,97.00
2017-12-20T11:22:19.334Z,97.00
2017-12-20T11:24:46.873Z,97.00
2017-12-20T11:27:20.426Z,97.10
2017-12-20T11:30:20.206Z,97.20
2017-12-20T11:32:48.621Z,97.60
2017-12-20T11:35:16.120Z,97.60
2017-12-20T11:37:43.802Z,97.90
2017-12-20T11:40:11.695Z,97.70
2017-12-20T11:42:48.434Z,97.70
2017-12-20T11:45:19.768Z,97.40
2017-12-20T11:47:47.868Z,97.30
2017-12-20T11:50:15.495Z,97.30
2017-12-20T11:52:43.280Z,97.50
2017-12-20T11:55:11.123Z,97.70
2017-12-20T11:57:43.057Z,97.70
2017-12-20T12:00:11.047Z,97.90
2017-12-20T12:02:38.614Z,98.00
2017-12-20T12:05:06.122Z,97.90
2017-12-20T12:07:33.664Z,97.90
2017-12-20T12:10:01.235Z,97.70
2017-12-20T12:12:28.853Z,97.70
2017-12-20T12:14:56.716Z,97.80
2017-12-20T12:17:24.774Z,97.90
2017-12-20T12:19:52.436Z,98.10
2017-12-20T12:22:20.130Z,98.20
2017-12-20T12:24:47.929Z,98.30
2017-12-20T12:27:15.504Z,98.10
2017-12-20T12:29:43.167Z,98.00
2017-12-20T12:32:10.867Z,97.90
2017-12-20T12:34:39.940Z,97.70
2017-12-20T12:37:07.534Z,97.90
2017-12-20T12:39:35.024Z,97.80
2017-12-20T12:42:02.534Z,97.90
2017-12-20T12:44:30.035Z,97.90
2017-12-20T12:46:57.529Z,97.90
2017-12-20T12:49:25.015Z,97.80
2017-12-20T12:51:52.563Z,97.70
2017-12-20T12:54:20.063Z,97.70
2017-12-20T12:56:47.570Z,97.70
2017-12-20T12:59:15.104Z,97.80
2017-12-20T13:01:42.595Z,97.90
2017-12-20T13:04:10.248Z,97.90
2017-12-20T13:06:37.851Z,97.90
2017-12-20T13:09:19.877Z,98.10
2017-12-20T13:11:49.771Z,97.70
2017-12-20T13:14:18.555Z,97.90
2017-12-20T13:16:47.504Z,98.00
2017-12-20T13:19:15.382Z,98.00
2017-12-20T13:21:43.039Z,98.10
2017-12-20T13:24:11.673Z,98.00
2017-12-20T13:26:39.369Z,98.00
2017-12-20T13:29:07.021Z,98.20
2017-12-20T13:31:34.799Z,98.40
2017-12-20T13:34:02.372Z,98.30
2017-12-20T13:36:29.871Z,98.30
2017-12-20T13:38:57.396Z,98.30
2017-12-20T13:41:24.899Z,98.10
2017-12-20T13:43:52.504Z,98.10
2017-12-20T13:46:20.071Z,97.90
2017-12-20T13:48:53.734Z,98.00
2017-12-20T13:51:26.999Z,98.00
2017-12-20T13:53:54.875Z,97.80
2017-12-20T13:56:27.959Z,97.80
2017-12-20T13:58:55.822Z,97.90
2017-12-20T14:01:28.310Z,98.00
2017-12-20T14:03:56.848Z,97.90
2017-12-20T14:06:34.462Z,97.90
2017-12-20T14:09:06.793Z,97.70
2017-12-20T14:11:58.470Z,97.70
2017-12-20T14:19:52.217Z,97.90
2017-12-20T14:22:19.715Z,97.80
2017-12-20T14:24:48.570Z,97.90
2017-12-20T14:27:16.194Z,97.90
2017-12-20T14:29:43.676Z,97.90
2017-12-20T14:32:11.221Z,97.90
2017-12-20T14:34:38.710Z,97.90
2017-12-20T14:37:06.236Z,97.90
2017-12-20T14:39:33.719Z,97.90
2017-12-20T14:42:01.289Z,97.90
2017-12-20T14:44:29.603Z,97.90
2017-12-20T14:46:57.277Z,97.90
2017-12-20T14:49:24.818Z,97.90
2017-12-20T14:51:52.392Z,98.00
2017-12-20T14:54:19.899Z,97.90
2017-12-20T14:56:47.364Z,97.90
2017-12-20T14:59:14.839Z,97.80
2017-12-20T15:01:42.338Z,98.00
2017-12-20T15:04:09.830Z,98.00
2017-12-20T15:06:37.361Z,98.00
2017-12-20T15:09:05.415Z,98.00
2017-12-20T15:11:33.000Z,98.10
2017-12-20T15:14:00.529Z,98.20
2017-12-20T15:16:32.926Z,98.20
2017-12-20T15:19:00.407Z,98.20
2017-12-20T15:21:27.870Z,98.30
2017-12-20T15:23:55.357Z,98.40
2017-12-20T15:26:23.613Z,98.40
2017-12-20T15:28:51.078Z,98.40
2017-12-20T15:31:18.647Z,98.60
2017-12-20T15:33:46.921Z,98.50
2017-12-20T15:36:15.226Z,98.50
2017-12-20T15:38:42.756Z,98.50
2017-12-20T15:41:10.219Z,98.40
2017-12-20T15:43:38.483Z,98.40
2017-12-20T15:46:05.936Z,98.40
2017-12-20T15:48:33.454Z,98.20
2017-12-20T15:51:00.927Z,98.30
2017-12-20T15:53:28.393Z,98.30
2017-12-20T15:55:55.879Z,98.40
2017-12-20T15:58:24.115Z,98.30
2017-12-20T16:00:51.576Z,98.30
2017-12-20T16:03:19.043Z,98.30
2017-12-20T16:05:46.526Z,98.20
2017-12-20T16:08:14.782Z,98.30
2017-12-20T16:10:42.258Z,98.30
2017-12-20T16:13:10.482Z,98.30
2017-12-20T16:15:37.940Z,98.30
2017-12-20T16:18:05.415Z,98.40
2017-12-20T16:20:32.882Z,98.30
2017-12-20T16:26:21.019Z,98.50
2017-12-20T16:28:49.388Z,98.60
2017-12-20T16:31:20.498Z,98.70
2017-12-20T20:51:57.790Z,99.90
2017-12-20T20:54:30.496Z,99.90
2017-12-20T21:06:10.098Z,99.90
2017-12-20T21:08:37.885Z,99.90
2017-12-20T21:11:10.378Z,99.90
2017-12-20T21:14:00.006Z,99.90
2017-12-20T21:16:30.717Z,99.90
2017-12-20T21:22:37.827Z,99.90
2017-12-20T21:25:11.646Z,99.90
2017-12-20T21:27:43.456Z,99.90
2017-12-20T21:33:27.803Z,99.90
2017-12-20T21:36:05.643Z,99.90
2017-12-20T21:38:45.464Z,99.90
2017-12-20T21:41:32.171Z,99.90
2017-12-20T21:50:17.593Z,99.90
2017-12-20T21:52:53.753Z,99.90
2017-12-20T22:13:16.401Z,99.90
2017-12-20T22:25:14.844Z,99.90
2017-12-20T22:58:16.115Z,99.90
2017-12-20T23:03:39.766Z,99.90
2017-12-20T23:15:31.148Z,99.90
2017-12-20T23:18:15.086Z,99.90
2017-12-20T23:24:02.455Z,99.90
2017-12-20T23:26:52.152Z,99.90
2017-12-20T23:29:29.511Z,99.90
2017-12-20T23:35:10.182Z,99.90
2017-12-20T23:37:38.238Z,99.90
2017-12-20T23:52:45.477Z,99.90
